Terminal Aerodrome Forecast
Issued by NWS Nashville, TN

Home | Current Version | Previous Version | Text Only | Print | Product List | Glossary On
Versions: 1 2 3 4 5 6 7 8 9 10 11 12 13 14 15 16 17 18 19 20 21 22 23 24 25 26
265
FTUS44 KOHX 171722
TAFBNA
TAF
KBNA 171722Z 1718/1818 33005KT 1SM RA BR BKN004
     FM172200 29003KT 4SM -RA BR OVC007
     FM180100 32006KT 6SM BR OVC012
     FM180800 35004KT 3SM BR SKC=

USA.gov is the U.S. government's official web portal to all federal, state and local government web resources and services.